sensor_id;sensor_type;location;lat;lon;timestamp;temperature;humidity
80279;DHT22;70683;52.492;13.416;2023-12-04T00:00:50;0.00;90.00
80279;DHT22;70683;52.492;13.416;2023-12-04T00:03:17;-0.10;89.80
80279;DHT22;70683;52.492;13.416;2023-12-04T00:05:43;0.00;90.00
80279;DHT22;70683;52.492;13.416;2023-12-04T00:08:10;-0.10;90.00
80279;DHT22;70683;52.492;13.416;2023-12-04T00:10:37;-0.10;90.30
80279;DHT22;70683;52.492;13.416;2023-12-04T00:13:03;-0.10;90.10
80279;DHT22;70683;52.492;13.416;2023-12-04T00:15:30;0.00;89.90
80279;DHT22;70683;52.492;13.416;2023-12-04T00:17:57;-0.10;89.60
80279;DHT22;70683;52.492;13.416;2023-12-04T00:20:24;-0.10;89.80
80279;DHT22;70683;52.492;13.416;2023-12-04T00:22:51;-0.10;90.20
80279;DHT22;70683;52.492;13.416;2023-12-04T00:25:17;-0.10;90.40
80279;DHT22;70683;52.492;13.416;2023-12-04T00:27:44;-0.20;90.20
80279;DHT22;70683;52.492;13.416;2023-12-04T00:30:11;-0.20;90.40
80279;DHT22;70683;52.492;13.416;2023-12-04T00:32:37;-0.20;90.70
80279;DHT22;70683;52.492;13.416;2023-12-04T00:35:05;-0.10;90.90
80279;DHT22;70683;52.492;13.416;2023-12-04T00:37:31;-0.10;90.70
80279;DHT22;70683;52.492;13.416;2023-12-04T00:40:00;-0.10;90.50
80279;DHT22;70683;52.492;13.416;2023-12-04T00:42:26;0.00;90.30
80279;DHT22;70683;52.492;13.416;2023-12-04T00:44:53;0.10;90.20
80279;DHT22;70683;52.492;13.416;2023-12-04T00:47:20;0.00;90.00
80279;DHT22;70683;52.492;13.416;2023-12-04T00:49:47;0.00;90.10
80279;DHT22;70683;52.492;13.416;2023-12-04T00:52:13;0.00;89.50
80279;DHT22;70683;52.492;13.416;2023-12-04T00:54:40;0.00;89.10
80279;DHT22;70683;52.492;13.416;2023-12-04T00:57:07;-0.10;89.30
80279;DHT22;70683;52.492;13.416;2023-12-04T00:59:34;-0.20;90.00
80279;DHT22;70683;52.492;13.416;2023-12-04T01:02:02;-0.20;90.00
80279;DHT22;70683;52.492;13.416;2023-12-04T01:04:28;-0.20;90.20
80279;DHT22;70683;52.492;13.416;2023-12-04T01:06:55;-0.20;90.10
80279;DHT22;70683;52.492;13.416;2023-12-04T01:09:22;-0.20;89.90
80279;DHT22;70683;52.492;13.416;2023-12-04T01:11:54;-0.40;90.20
80279;DHT22;70683;52.492;13.416;2023-12-04T01:14:21;-0.40;90.30
80279;DHT22;70683;52.492;13.416;2023-12-04T01:16:48;-0.40;90.00
80279;DHT22;70683;52.492;13.416;2023-12-04T01:19:14;-0.30;90.00
80279;DHT22;70683;52.492;13.416;2023-12-04T01:21:42;-0.40;90.00
80279;DHT22;70683;52.492;13.416;2023-12-04T01:24:09;-0.50;90.40
80279;DHT22;70683;52.492;13.416;2023-12-04T01:26:35;-0.60;90.70
80279;DHT22;70683;52.492;13.416;2023-12-04T01:29:02;-0.60;90.80
80279;DHT22;70683;52.492;13.416;2023-12-04T01:31:28;-0.50;90.90
80279;DHT22;70683;52.492;13.416;2023-12-04T01:33:55;-0.60;91.20
80279;DHT22;70683;52.492;13.416;2023-12-04T01:36:21;-0.60;91.30
80279;DHT22;70683;52.492;13.416;2023-12-04T01:38:48;-0.60;91.00
80279;DHT22;70683;52.492;13.416;2023-12-04T01:41:15;-0.50;91.10
80279;DHT22;70683;52.492;13.416;2023-12-04T01:43:42;-0.40;90.70
80279;DHT22;70683;52.492;13.416;2023-12-04T01:46:09;-0.30;90.30
80279;DHT22;70683;52.492;13.416;2023-12-04T01:48:37;-0.30;90.40
80279;DHT22;70683;52.492;13.416;2023-12-04T01:51:06;-0.30;90.30
80279;DHT22;70683;52.492;13.416;2023-12-04T01:53:36;-0.40;90.40
80279;DHT22;70683;52.492;13.416;2023-12-04T01:56:04;-0.40;90.40
80279;DHT22;70683;52.492;13.416;2023-12-04T01:58:32;-0.50;90.70
80279;DHT22;70683;52.492;13.416;2023-12-04T02:00:59;-0.50;91.30
80279;DHT22;70683;52.492;13.416;2023-12-04T02:03:26;-0.60;91.40
80279;DHT22;70683;52.492;13.416;2023-12-04T02:05:53;-0.50;91.30
80279;DHT22;70683;52.492;13.416;2023-12-04T02:08:21;-0.40;91.10
80279;DHT22;70683;52.492;13.416;2023-12-04T02:10:47;-0.40;91.00
80279;DHT22;70683;52.492;13.416;2023-12-04T02:13:14;-0.40;91.00
80279;DHT22;70683;52.492;13.416;2023-12-04T02:15:41;-0.40;90.70
80279;DHT22;70683;52.492;13.416;2023-12-04T02:18:08;-0.40;90.80
80279;DHT22;70683;52.492;13.416;2023-12-04T02:20:35;-0.40;90.90
80279;DHT22;70683;52.492;13.416;2023-12-04T02:23:02;-0.40;90.80
80279;DHT22;70683;52.492;13.416;2023-12-04T02:25:29;-0.40;90.80
80279;DHT22;70683;52.492;13.416;2023-12-04T02:27:59;-0.40;90.90
80279;DHT22;70683;52.492;13.416;2023-12-04T02:30:29;-0.50;91.10
80279;DHT22;70683;52.492;13.416;2023-12-04T02:32:58;-0.40;91.10
80279;DHT22;70683;52.492;13.416;2023-12-04T02:35:28;-0.40;90.90
80279;DHT22;70683;52.492;13.416;2023-12-04T02:37:56;-0.30;90.40
80279;DHT22;70683;52.492;13.416;2023-12-04T02:40:25;-0.40;90.20
80279;DHT22;70683;52.492;13.416;2023-12-04T02:42:52;-0.40;90.30
80279;DHT22;70683;52.492;13.416;2023-12-04T02:45:18;-0.40;90.00
80279;DHT22;70683;52.492;13.416;2023-12-04T02:47:45;-0.50;90.10
80279;DHT22;70683;52.492;13.416;2023-12-04T02:50:12;-0.60;90.80
80279;DHT22;70683;52.492;13.416;2023-12-04T02:52:39;-0.60;90.90
80279;DHT22;70683;52.492;13.416;2023-12-04T02:55:06;-0.60;90.80
80279;DHT22;70683;52.492;13.416;2023-12-04T02:57:33;-0.60;90.80
80279;DHT22;70683;52.492;13.416;2023-12-04T03:00:00;-0.60;90.80
80279;DHT22;70683;52.492;13.416;2023-12-04T03:02:26;-0.60;90.80
80279;DHT22;70683;52.492;13.416;2023-12-04T03:04:53;-0.60;90.70
80279;DHT22;70683;52.492;13.416;2023-12-04T03:07:20;-0.50;90.50
80279;DHT22;70683;52.492;13.416;2023-12-04T03:09:47;-0.60;90.50
80279;DHT22;70683;52.492;13.416;2023-12-04T03:12:14;-0.50;90.10
80279;DHT22;70683;52.492;13.416;2023-12-04T03:14:40;-0.40;89.60
80279;DHT22;70683;52.492;13.416;2023-12-04T03:17:07;-0.50;89.90
80279;DHT22;70683;52.492;13.416;2023-12-04T03:19:33;-0.60;90.40
80279;DHT22;70683;52.492;13.416;2023-12-04T03:22:01;-0.70;90.50
80279;DHT22;70683;52.492;13.416;2023-12-04T03:24:28;-0.60;90.30
80279;DHT22;70683;52.492;13.416;2023-12-04T03:26:54;-0.60;90.10
80279;DHT22;70683;52.492;13.416;2023-12-04T03:29:21;-0.60;90.00
80279;DHT22;70683;52.492;13.416;2023-12-04T03:31:47;-0.60;90.30
80279;DHT22;70683;52.492;13.416;2023-12-04T03:34:14;-0.60;90.30
80279;DHT22;70683;52.492;13.416;2023-12-04T03:36:41;-0.60;90.40
80279;DHT22;70683;52.492;13.416;2023-12-04T03:39:07;-0.60;90.20
80279;DHT22;70683;52.492;13.416;2023-12-04T03:41:34;-0.60;90.30
80279;DHT22;70683;52.492;13.416;2023-12-04T03:44:00;-0.70;90.20
80279;DHT22;70683;52.492;13.416;2023-12-04T03:46:27;-0.70;90.20
80279;DHT22;70683;52.492;13.416;2023-12-04T03:48:54;-0.60;90.10
80279;DHT22;70683;52.492;13.416;2023-12-04T03:51:21;-0.70;90.30
80279;DHT22;70683;52.492;13.416;2023-12-04T03:53:49;-0.60;89.70
80279;DHT22;70683;52.492;13.416;2023-12-04T03:56:15;-0.60;90.10
80279;DHT22;70683;52.492;13.416;2023-12-04T03:58:42;-0.60;89.50
80279;DHT22;70683;52.492;13.416;2023-12-04T04:01:09;-0.60;89.10
80279;DHT22;70683;52.492;13.416;2023-12-04T04:03:35;-0.70;89.10
80279;DHT22;70683;52.492;13.416;2023-12-04T04:06:02;-0.70;89.10
80279;DHT22;70683;52.492;13.416;2023-12-04T04:08:29;-0.80;89.20
80279;DHT22;70683;52.492;13.416;2023-12-04T04:10:55;-0.90;89.70
80279;DHT22;70683;52.492;13.416;2023-12-04T04:13:22;-0.80;89.70
80279;DHT22;70683;52.492;13.416;2023-12-04T04:15:48;-0.80;89.80
80279;DHT22;70683;52.492;13.416;2023-12-04T04:18:15;-0.80;88.90
80279;DHT22;70683;52.492;13.416;2023-12-04T04:20:42;-0.80;89.10
80279;DHT22;70683;52.492;13.416;2023-12-04T04:23:08;-0.80;89.10
80279;DHT22;70683;52.492;13.416;2023-12-04T04:25:35;-0.80;89.00
80279;DHT22;70683;52.492;13.416;2023-12-04T04:28:02;-0.80;88.80
80279;DHT22;70683;52.492;13.416;2023-12-04T04:30:28;-0.80;88.60
80279;DHT22;70683;52.492;13.416;2023-12-04T04:32:55;-0.80;88.70
80279;DHT22;70683;52.492;13.416;2023-12-04T04:35:21;-0.80;88.90
80279;DHT22;70683;52.492;13.416;2023-12-04T04:37:48;-0.90;88.00
80279;DHT22;70683;52.492;13.416;2023-12-04T04:40:15;-0.90;88.40
80279;DHT22;70683;52.492;13.416;2023-12-04T04:42:41;-1.00;88.50
80279;DHT22;70683;52.492;13.416;2023-12-04T04:45:08;-1.00;88.90
80279;DHT22;70683;52.492;13.416;2023-12-04T04:47:35;-1.00;89.20
80279;DHT22;70683;52.492;13.416;2023-12-04T04:50:02;-1.00;89.10
80279;DHT22;70683;52.492;13.416;2023-12-04T04:52:30;-1.00;89.10
80279;DHT22;70683;52.492;13.416;2023-12-04T04:54:56;-0.90;89.20
80279;DHT22;70683;52.492;13.416;2023-12-04T04:57:23;-0.90;89.40
80279;DHT22;70683;52.492;13.416;2023-12-04T04:59:49;-0.90;89.80
80279;DHT22;70683;52.492;13.416;2023-12-04T05:02:16;-0.90;89.00
80279;DHT22;70683;52.492;13.416;2023-12-04T05:04:43;-0.80;88.90
80279;DHT22;70683;52.492;13.416;2023-12-04T05:07:09;-0.80;89.10
80279;DHT22;70683;52.492;13.416;2023-12-04T05:09:36;-0.80;88.40
80279;DHT22;70683;52.492;13.416;2023-12-04T05:12:03;-0.70;87.80
80279;DHT22;70683;52.492;13.416;2023-12-04T05:14:30;-0.70;87.80
80279;DHT22;70683;52.492;13.416;2023-12-04T05:16:56;-0.70;88.00
80279;DHT22;70683;52.492;13.416;2023-12-04T05:19:23;-0.70;87.60
80279;DHT22;70683;52.492;13.416;2023-12-04T05:21:50;-0.70;87.90
80279;DHT22;70683;52.492;13.416;2023-12-04T05:24:16;-0.70;87.70
80279;DHT22;70683;52.492;13.416;2023-12-04T05:26:43;-0.70;88.30
80279;DHT22;70683;52.492;13.416;2023-12-04T05:29:10;-0.70;88.20
80279;DHT22;70683;52.492;13.416;2023-12-04T05:31:37;-0.70;88.10
80279;DHT22;70683;52.492;13.416;2023-12-04T05:34:03;-0.60;87.40
80279;DHT22;70683;52.492;13.416;2023-12-04T05:36:30;-0.60;87.70
80279;DHT22;70683;52.492;13.416;2023-12-04T05:38:56;-0.70;87.40
80279;DHT22;70683;52.492;13.416;2023-12-04T05:41:23;-0.70;87.50
80279;DHT22;70683;52.492;13.416;2023-12-04T05:43:50;-0.80;87.50
80279;DHT22;70683;52.492;13.416;2023-12-04T05:46:17;-0.80;88.20
80279;DHT22;70683;52.492;13.416;2023-12-04T05:48:43;-0.80;88.10
80279;DHT22;70683;52.492;13.416;2023-12-04T05:51:10;-0.80;88.10
80279;DHT22;70683;52.492;13.416;2023-12-04T05:53:37;-0.80;88.20
80279;DHT22;70683;52.492;13.416;2023-12-04T05:56:05;-0.80;88.10
80279;DHT22;70683;52.492;13.416;2023-12-04T05:58:32;-0.80;88.20
80279;DHT22;70683;52.492;13.416;2023-12-04T06:00:59;-0.90;88.10
80279;DHT22;70683;52.492;13.416;2023-12-04T06:03:26;-0.90;88.20
80279;DHT22;70683;52.492;13.416;2023-12-04T06:05:52;-0.90;88.90
80279;DHT22;70683;52.492;13.416;2023-12-04T06:08:19;-0.80;89.20
80279;DHT22;70683;52.492;13.416;2023-12-04T06:10:46;-0.80;88.90
80279;DHT22;70683;52.492;13.416;2023-12-04T06:13:13;-0.80;88.70
80279;DHT22;70683;52.492;13.416;2023-12-04T06:15:39;-0.80;88.60
80279;DHT22;70683;52.492;13.416;2023-12-04T06:18:06;-0.80;88.90
80279;DHT22;70683;52.492;13.416;2023-12-04T06:20:33;-0.80;89.20
80279;DHT22;70683;52.492;13.416;2023-12-04T06:23:00;-0.70;89.00
80279;DHT22;70683;52.492;13.416;2023-12-04T06:25:27;-0.80;89.10
80279;DHT22;70683;52.492;13.416;2023-12-04T06:27:54;-0.80;89.20
80279;DHT22;70683;52.492;13.416;2023-12-04T06:30:22;-0.70;89.00
80279;DHT22;70683;52.492;13.416;2023-12-04T06:32:49;-0.70;89.10
80279;DHT22;70683;52.492;13.416;2023-12-04T06:35:16;-0.70;88.70
80279;DHT22;70683;52.492;13.416;2023-12-04T06:37:44;-0.70;88.70
80279;DHT22;70683;52.492;13.416;2023-12-04T06:40:12;-0.60;88.80
80279;DHT22;70683;52.492;13.416;2023-12-04T06:42:39;-0.60;89.10
80279;DHT22;70683;52.492;13.416;2023-12-04T06:45:07;-0.50;89.10
80279;DHT22;70683;52.492;13.416;2023-12-04T06:47:34;-0.50;88.90
80279;DHT22;70683;52.492;13.416;2023-12-04T06:50:01;-0.50;88.70
80279;DHT22;70683;52.492;13.416;2023-12-04T06:52:28;-0.50;88.40
80279;DHT22;70683;52.492;13.416;2023-12-04T06:54:55;-0.40;88.90
80279;DHT22;70683;52.492;13.416;2023-12-04T06:57:21;-0.50;88.90
80279;DHT22;70683;52.492;13.416;2023-12-04T06:59:48;-0.40;88.50
80279;DHT22;70683;52.492;13.416;2023-12-04T07:02:14;-0.30;88.40
80279;DHT22;70683;52.492;13.416;2023-12-04T07:04:41;-0.30;88.00
80279;DHT22;70683;52.492;13.416;2023-12-04T07:07:08;-0.30;87.90
80279;DHT22;70683;52.492;13.416;2023-12-04T07:09:34;-0.20;88.00
80279;DHT22;70683;52.492;13.416;2023-12-04T07:12:01;-0.20;88.20
80279;DHT22;70683;52.492;13.416;2023-12-04T07:14:28;-0.20;87.30
80279;DHT22;70683;52.492;13.416;2023-12-04T07:16:55;-0.10;87.00
80279;DHT22;70683;52.492;13.416;2023-12-04T07:19:22;-0.10;87.00
80279;DHT22;70683;52.492;13.416;2023-12-04T07:21:48;-0.10;86.90
80279;DHT22;70683;52.492;13.416;2023-12-04T07:24:16;-0.10;87.20
80279;DHT22;70683;52.492;13.416;2023-12-04T07:26:42;-0.10;87.80
80279;DHT22;70683;52.492;13.416;2023-12-04T07:29:09;-0.10;86.20
80279;DHT22;70683;52.492;13.416;2023-12-04T07:31:35;-0.10;86.30
80279;DHT22;70683;52.492;13.416;2023-12-04T07:34:02;-0.10;86.40
80279;DHT22;70683;52.492;13.416;2023-12-04T07:36:29;-0.20;87.00
80279;DHT22;70683;52.492;13.416;2023-12-04T07:38:56;-0.10;87.00
80279;DHT22;70683;52.492;13.416;2023-12-04T07:41:23;-0.10;86.70
80279;DHT22;70683;52.492;13.416;2023-12-04T07:43:50;0.00;86.20
80279;DHT22;70683;52.492;13.416;2023-12-04T07:46:17;-0.10;86.20
80279;DHT22;70683;52.492;13.416;2023-12-04T07:48:43;-0.10;86.30
80279;DHT22;70683;52.492;13.416;2023-12-04T07:51:11;0.00;86.30
80279;DHT22;70683;52.492;13.416;2023-12-04T07:53:38;0.00;85.90
80279;DHT22;70683;52.492;13.416;2023-12-04T07:56:05;0.00;85.70
80279;DHT22;70683;52.492;13.416;2023-12-04T07:58:32;0.00;85.80
80279;DHT22;70683;52.492;13.416;2023-12-04T08:00:58;0.10;85.60
80279;DHT22;70683;52.492;13.416;2023-12-04T08:03:25;0.10;85.20
80279;DHT22;70683;52.492;13.416;2023-12-04T08:05:52;0.10;85.10
80279;DHT22;70683;52.492;13.416;2023-12-04T08:08:19;0.10;85.60
80279;DHT22;70683;52.492;13.416;2023-12-04T08:10:45;0.10;85.50
80279;DHT22;70683;52.492;13.416;2023-12-04T08:13:12;0.10;85.10
80279;DHT22;70683;52.492;13.416;2023-12-04T08:15:39;0.20;85.70
80279;DHT22;70683;52.492;13.416;2023-12-04T08:18:05;0.10;85.50
80279;DHT22;70683;52.492;13.416;2023-12-04T08:20:32;0.30;85.50
80279;DHT22;70683;52.492;13.416;2023-12-04T08:22:59;0.30;85.20
80279;DHT22;70683;52.492;13.416;2023-12-04T08:25:26;0.40;84.70
80279;DHT22;70683;52.492;13.416;2023-12-04T08:27:53;0.40;85.00
80279;DHT22;70683;52.492;13.416;2023-12-04T08:30:20;0.40;84.70
80279;DHT22;70683;52.492;13.416;2023-12-04T08:32:46;0.40;84.30
80279;DHT22;70683;52.492;13.416;2023-12-04T08:35:13;0.50;84.10
80279;DHT22;70683;52.492;13.416;2023-12-04T08:37:40;0.50;84.20
80279;DHT22;70683;52.492;13.416;2023-12-04T08:40:08;0.50;84.40
80279;DHT22;70683;52.492;13.416;2023-12-04T08:42:34;0.50;84.90
80279;DHT22;70683;52.492;13.416;2023-12-04T08:45:01;0.60;83.40
80279;DHT22;70683;52.492;13.416;2023-12-04T08:47:28;0.70;83.30
80279;DHT22;70683;52.492;13.416;2023-12-04T08:49:54;0.70;83.50
80279;DHT22;70683;52.492;13.416;2023-12-04T08:52:21;0.70;83.50
80279;DHT22;70683;52.492;13.416;2023-12-04T08:54:47;0.70;83.90
80279;DHT22;70683;52.492;13.416;2023-12-04T08:57:14;0.70;84.10
80279;DHT22;70683;52.492;13.416;2023-12-04T08:59:41;0.70;84.20
80279;DHT22;70683;52.492;13.416;2023-12-04T09:02:08;0.80;83.50
80279;DHT22;70683;52.492;13.416;2023-12-04T09:04:36;0.90;83.90
80279;DHT22;70683;52.492;13.416;2023-12-04T09:07:03;0.90;84.30
80279;DHT22;70683;52.492;13.416;2023-12-04T09:09:30;1.00;84.10
80279;DHT22;70683;52.492;13.416;2023-12-04T09:11:58;1.10;83.70
80279;DHT22;70683;52.492;13.416;2023-12-04T09:14:25;1.20;82.30
80279;DHT22;70683;52.492;13.416;2023-12-04T09:16:54;1.20;81.70
80279;DHT22;70683;52.492;13.416;2023-12-04T09:19:21;1.10;82.00
80279;DHT22;70683;52.492;13.416;2023-12-04T09:21:48;1.10;81.90
80279;DHT22;70683;52.492;13.416;2023-12-04T09:24:14;1.10;82.30
80279;DHT22;70683;52.492;13.416;2023-12-04T09:26:41;1.10;82.10
80279;DHT22;70683;52.492;13.416;2023-12-04T09:29:11;1.10;81.80
80279;DHT22;70683;52.492;13.416;2023-12-04T09:31:38;1.20;81.40
80279;DHT22;70683;52.492;13.416;2023-12-04T09:34:05;1.20;81.80
80279;DHT22;70683;52.492;13.416;2023-12-04T09:36:32;1.10;82.10
80279;DHT22;70683;52.492;13.416;2023-12-04T09:38:59;1.20;82.80
80279;DHT22;70683;52.492;13.416;2023-12-04T09:41:27;1.20;81.60
80279;DHT22;70683;52.492;13.416;2023-12-04T09:43:54;1.20;82.10
80279;DHT22;70683;52.492;13.416;2023-12-04T09:46:21;1.30;82.20
80279;DHT22;70683;52.492;13.416;2023-12-04T09:48:49;1.20;82.10
80279;DHT22;70683;52.492;13.416;2023-12-04T09:51:18;1.40;81.70
80279;DHT22;70683;52.492;13.416;2023-12-04T09:53:47;1.30;80.90
80279;DHT22;70683;52.492;13.416;2023-12-04T09:56:15;1.30;81.30
80279;DHT22;70683;52.492;13.416;2023-12-04T09:58:45;1.30;81.90
80279;DHT22;70683;52.492;13.416;2023-12-04T10:01:11;1.40;82.40
80279;DHT22;70683;52.492;13.416;2023-12-04T10:03:40;1.40;81.50
80279;DHT22;70683;52.492;13.416;2023-12-04T10:06:08;1.50;80.80
80279;DHT22;70683;52.492;13.416;2023-12-04T10:08:35;1.50;80.80
80279;DHT22;70683;52.492;13.416;2023-12-04T10:11:02;1.50;80.20
80279;DHT22;70683;52.492;13.416;2023-12-04T10:13:29;1.60;80.00
80279;DHT22;70683;52.492;13.416;2023-12-04T10:15:55;1.60;79.90
80279;DHT22;70683;52.492;13.416;2023-12-04T10:18:28;1.70;79.40
80279;DHT22;70683;52.492;13.416;2023-12-04T10:20:58;1.60;79.70
80279;DHT22;70683;52.492;13.416;2023-12-04T10:26:04;1.70;79.50
80279;DHT22;70683;52.492;13.416;2023-12-04T10:28:30;1.70;79.00
80279;DHT22;70683;52.492;13.416;2023-12-04T10:30:57;1.70;78.90
80279;DHT22;70683;52.492;13.416;2023-12-04T10:33:25;1.60;79.00
80279;DHT22;70683;52.492;13.416;2023-12-04T10:35:53;1.70;79.30
80279;DHT22;70683;52.492;13.416;2023-12-04T10:38:21;1.70;79.30
80279;DHT22;70683;52.492;13.416;2023-12-04T10:40:49;1.70;78.90
80279;DHT22;70683;52.492;13.416;2023-12-04T10:43:19;1.80;79.70
80279;DHT22;70683;52.492;13.416;2023-12-04T10:45:47;1.70;81.30
80279;DHT22;70683;52.492;13.416;2023-12-04T10:48:15;1.90;81.70
80279;DHT22;70683;52.492;13.416;2023-12-04T10:50:44;2.00;79.80
80279;DHT22;70683;52.492;13.416;2023-12-04T10:53:13;2.00;78.70
80279;DHT22;70683;52.492;13.416;2023-12-04T10:55:41;2.10;78.40
80279;DHT22;70683;52.492;13.416;2023-12-04T10:58:10;2.00;77.90
80279;DHT22;70683;52.492;13.416;2023-12-04T11:00:43;2.10;79.40
80279;DHT22;70683;52.492;13.416;2023-12-04T11:03:10;2.10;78.10
80279;DHT22;70683;52.492;13.416;2023-12-04T11:05:40;2.10;77.90
80279;DHT22;70683;52.492;13.416;2023-12-04T11:08:09;2.10;78.10
80279;DHT22;70683;52.492;13.416;2023-12-04T11:10:41;2.10;77.90
80279;DHT22;70683;52.492;13.416;2023-12-04T11:13:13;2.00;77.90
80279;DHT22;70683;52.492;13.416;2023-12-04T11:15:40;2.00;78.10
80279;DHT22;70683;52.492;13.416;2023-12-04T11:18:11;1.90;78.50
80279;DHT22;70683;52.492;13.416;2023-12-04T11:20:46;2.00;78.70
80279;DHT22;70683;52.492;13.416;2023-12-04T11:23:14;2.00;78.30
80279;DHT22;70683;52.492;13.416;2023-12-04T11:25:42;2.10;78.20
80279;DHT22;70683;52.492;13.416;2023-12-04T11:28:10;2.10;78.60
80279;DHT22;70683;52.492;13.416;2023-12-04T11:30:38;2.10;78.20
80279;DHT22;70683;52.492;13.416;2023-12-04T11:33:05;2.00;78.10
80279;DHT22;70683;52.492;13.416;2023-12-04T11:35:33;2.00;78.80
80279;DHT22;70683;52.492;13.416;2023-12-04T11:38:00;2.00;78.70
80279;DHT22;70683;52.492;13.416;2023-12-04T11:40:27;2.00;79.10
80279;DHT22;70683;52.492;13.416;2023-12-04T11:42:54;2.10;79.10
80279;DHT22;70683;52.492;13.416;2023-12-04T11:45:21;2.20;78.30
80279;DHT22;70683;52.492;13.416;2023-12-04T11:47:58;2.20;77.80
80279;DHT22;70683;52.492;13.416;2023-12-04T11:50:25;2.30;77.70
80279;DHT22;70683;52.492;13.416;2023-12-04T11:52:51;2.20;77.90
80279;DHT22;70683;52.492;13.416;2023-12-04T11:55:20;2.20;77.80
80279;DHT22;70683;52.492;13.416;2023-12-04T11:57:50;2.20;78.50
80279;DHT22;70683;52.492;13.416;2023-12-04T12:00:21;2.20;77.90
80279;DHT22;70683;52.492;13.416;2023-12-04T12:05:36;2.20;78.20
80279;DHT22;70683;52.492;13.416;2023-12-04T12:08:07;2.30;78.60
80279;DHT22;70683;52.492;13.416;2023-12-04T12:10:34;2.40;78.30
80279;DHT22;70683;52.492;13.416;2023-12-04T12:13:01;2.40;78.30
80279;DHT22;70683;52.492;13.416;2023-12-04T12:15:28;2.30;77.80
80279;DHT22;70683;52.492;13.416;2023-12-04T12:17:55;2.40;77.60
80279;DHT22;70683;52.492;13.416;2023-12-04T12:20:22;2.30;77.60
80279;DHT22;70683;52.492;13.416;2023-12-04T12:22:49;2.30;78.30
80279;DHT22;70683;52.492;13.416;2023-12-04T12:25:17;2.20;78.90
80279;DHT22;70683;52.492;13.416;2023-12-04T12:27:45;2.30;78.40
80279;DHT22;70683;52.492;13.416;2023-12-04T12:30:12;2.40;78.40
80279;DHT22;70683;52.492;13.416;2023-12-04T12:32:38;2.40;78.30
80279;DHT22;70683;52.492;13.416;2023-12-04T12:35:06;2.30;78.00
80279;DHT22;70683;52.492;13.416;2023-12-04T12:37:35;2.30;78.70
80279;DHT22;70683;52.492;13.416;2023-12-04T12:40:03;2.20;78.60
80279;DHT22;70683;52.492;13.416;2023-12-04T12:42:30;2.20;79.70
80279;DHT22;70683;52.492;13.416;2023-12-04T12:45:01;2.20;79.30
80279;DHT22;70683;52.492;13.416;2023-12-04T12:47:29;2.20;79.70
80279;DHT22;70683;52.492;13.416;2023-12-04T12:49:57;2.30;80.00
80279;DHT22;70683;52.492;13.416;2023-12-04T12:52:23;2.30;78.60
80279;DHT22;70683;52.492;13.416;2023-12-04T12:54:50;2.30;78.70
80279;DHT22;70683;52.492;13.416;2023-12-04T12:57:18;2.30;79.10
80279;DHT22;70683;52.492;13.416;2023-12-04T12:59:45;2.20;80.30
80279;DHT22;70683;52.492;13.416;2023-12-04T13:02:14;2.20;80.10
80279;DHT22;70683;52.492;13.416;2023-12-04T13:04:41;2.20;80.30
80279;DHT22;70683;52.492;13.416;2023-12-04T13:07:08;2.30;80.10
80279;DHT22;70683;52.492;13.416;2023-12-04T13:09:36;2.30;80.70
80279;DHT22;70683;52.492;13.416;2023-12-04T13:12:05;2.30;79.80
80279;DHT22;70683;52.492;13.416;2023-12-04T13:17:16;2.50;79.40
80279;DHT22;70683;52.492;13.416;2023-12-04T13:19:43;2.40;79.20
80279;DHT22;70683;52.492;13.416;2023-12-04T13:22:10;2.30;79.80
80279;DHT22;70683;52.492;13.416;2023-12-04T13:24:36;2.30;79.40
80279;DHT22;70683;52.492;13.416;2023-12-04T13:27:03;2.30;79.70
80279;DHT22;70683;52.492;13.416;2023-12-04T13:29:31;2.30;80.10
80279;DHT22;70683;52.492;13.416;2023-12-04T13:31:59;2.20;80.80
80279;DHT22;70683;52.492;13.416;2023-12-04T13:34:25;2.20;80.00
80279;DHT22;70683;52.492;13.416;2023-12-04T13:36:53;2.10;80.20
80279;DHT22;70683;52.492;13.416;2023-12-04T13:39:20;2.10;80.50
80279;DHT22;70683;52.492;13.416;2023-12-04T13:41:50;2.10;80.70
80279;DHT22;70683;52.492;13.416;2023-12-04T13:44:22;2.10;80.60
80279;DHT22;70683;52.492;13.416;2023-12-04T13:46:49;2.00;80.90
80279;DHT22;70683;52.492;13.416;2023-12-04T13:49:15;2.00;81.40
80279;DHT22;70683;52.492;13.416;2023-12-04T13:51:44;2.00;81.20
80279;DHT22;70683;52.492;13.416;2023-12-04T13:54:11;2.10;81.10
80279;DHT22;70683;52.492;13.416;2023-12-04T13:56:48;2.10;81.00
80279;DHT22;70683;52.492;13.416;2023-12-04T13:59:21;2.10;80.90
80279;DHT22;70683;52.492;13.416;2023-12-04T14:01:49;2.10;80.80
80279;DHT22;70683;52.492;13.416;2023-12-04T14:04:17;2.10;81.00
80279;DHT22;70683;52.492;13.416;2023-12-04T14:06:44;2.00;80.80
80279;DHT22;70683;52.492;13.416;2023-12-04T14:09:12;2.10;80.90
80279;DHT22;70683;52.492;13.416;2023-12-04T14:11:43;2.10;81.10
80279;DHT22;70683;52.492;13.416;2023-12-04T14:14:11;2.00;80.90
80279;DHT22;70683;52.492;13.416;2023-12-04T14:16:39;2.00;80.60
80279;DHT22;70683;52.492;13.416;2023-12-04T14:19:06;2.00;80.70
80279;DHT22;70683;52.492;13.416;2023-12-04T14:21:33;2.00;80.50
80279;DHT22;70683;52.492;13.416;2023-12-04T14:23:59;2.00;81.00
80279;DHT22;70683;52.492;13.416;2023-12-04T14:26:26;2.00;81.20
80279;DHT22;70683;52.492;13.416;2023-12-04T14:28:53;1.90;81.10
80279;DHT22;70683;52.492;13.416;2023-12-04T14:31:22;1.90;81.60
80279;DHT22;70683;52.492;13.416;2023-12-04T14:33:51;2.00;81.20
80279;DHT22;70683;52.492;13.416;2023-12-04T14:36:19;2.10;80.70
80279;DHT22;70683;52.492;13.416;2023-12-04T14:38:46;2.10;80.90
80279;DHT22;70683;52.492;13.416;2023-12-04T14:41:13;2.00;81.10
80279;DHT22;70683;52.492;13.416;2023-12-04T14:43:40;2.00;81.10
80279;DHT22;70683;52.492;13.416;2023-12-04T14:46:08;2.00;81.10
80279;DHT22;70683;52.492;13.416;2023-12-04T14:48:38;2.00;81.00
80279;DHT22;70683;52.492;13.416;2023-12-04T14:51:07;2.00;80.90
80279;DHT22;70683;52.492;13.416;2023-12-04T14:53:40;2.00;81.10
80279;DHT22;70683;52.492;13.416;2023-12-04T14:56:11;1.90;81.30
80279;DHT22;70683;52.492;13.416;2023-12-04T14:58:44;2.00;81.00
80279;DHT22;70683;52.492;13.416;2023-12-04T15:01:27;1.90;81.70
80279;DHT22;70683;52.492;13.416;2023-12-04T15:03:59;1.90;81.90
80279;DHT22;70683;52.492;13.416;2023-12-04T15:06:32;1.90;81.90
80279;DHT22;70683;52.492;13.416;2023-12-04T15:09:03;1.90;81.90
80279;DHT22;70683;52.492;13.416;2023-12-04T15:11:36;1.90;81.40
80279;DHT22;70683;52.492;13.416;2023-12-04T15:14:05;2.00;81.40
80279;DHT22;70683;52.492;13.416;2023-12-04T15:16:47;2.00;81.10
80279;DHT22;70683;52.492;13.416;2023-12-04T15:19:15;1.90;81.50
80279;DHT22;70683;52.492;13.416;2023-12-04T15:21:49;1.90;81.30
80279;DHT22;70683;52.492;13.416;2023-12-04T15:24:16;2.00;81.10
80279;DHT22;70683;52.492;13.416;2023-12-04T15:26:42;1.90;81.20
80279;DHT22;70683;52.492;13.416;2023-12-04T15:29:09;2.00;81.10
80279;DHT22;70683;52.492;13.416;2023-12-04T15:31:37;1.90;81.00